sensor_id;sensor_type;location;lat;lon;timestamp;pressure;altitude;pressure_sealevel;temperature;humidity
35649;BME280;21768;48.562;13.414;2024-03-25T00:01:57;96401.59;;;6.13;70.89
35649;BME280;21768;48.562;13.414;2024-03-25T00:04:23;96400.72;;;6.13;70.74
35649;BME280;21768;48.562;13.414;2024-03-25T00:06:49;96393.97;;;6.12;70.84
35649;BME280;21768;48.562;13.414;2024-03-25T00:09:15;96398.97;;;6.12;70.65
35649;BME280;21768;48.562;13.414;2024-03-25T00:11:41;96392.44;;;6.14;70.69
35649;BME280;21768;48.562;13.414;2024-03-25T00:14:07;96399.19;;;6.15;70.57
35649;BME280;21768;48.562;13.414;2024-03-25T00:16:34;96398.41;;;6.16;70.29
35649;BME280;21768;48.562;13.414;2024-03-25T00:19:00;96402.81;;;6.20;70.50
35649;BME280;21768;48.562;13.414;2024-03-25T00:21:25;96406.09;;;6.19;70.58
35649;BME280;21768;48.562;13.414;2024-03-25T00:23:51;96406.09;;;6.19;70.51
35649;BME280;21768;48.562;13.414;2024-03-25T00:26:16;96404.88;;;6.26;70.49
35649;BME280;21768;48.562;13.414;2024-03-25T00:28:42;96408.44;;;6.29;70.12
35649;BME280;21768;48.562;13.414;2024-03-25T00:31:09;96407.38;;;6.26;70.27
35649;BME280;21768;48.562;13.414;2024-03-25T00:33:35;96404.97;;;6.27;70.32
35649;BME280;21768;48.562;13.414;2024-03-25T00:36:00;96399.84;;;6.26;70.09
35649;BME280;21768;48.562;13.414;2024-03-25T00:38:27;96398.00;;;6.23;70.53
35649;BME280;21768;48.562;13.414;2024-03-25T00:40:53;96404.75;;;6.24;70.31
35649;BME280;21768;48.562;13.414;2024-03-25T00:43:19;96400.72;;;6.26;70.09
35649;BME280;21768;48.562;13.414;2024-03-25T00:45:45;96393.41;;;6.29;69.92
35649;BME280;21768;48.562;13.414;2024-03-25T00:48:11;96388.41;;;6.29;70.05
35649;BME280;21768;48.562;13.414;2024-03-25T00:50:37;96383.97;;;6.25;70.04
35649;BME280;21768;48.562;13.414;2024-03-25T00:53:02;96388.00;;;6.23;69.79
35649;BME280;21768;48.562;13.414;2024-03-25T00:55:28;96386.25;;;6.22;69.87
35649;BME280;21768;48.562;13.414;2024-03-25T00:57:53;96386.25;;;6.22;69.74
35649;BME280;21768;48.562;13.414;2024-03-25T01:00:19;96389.38;;;6.18;69.88
35649;BME280;21768;48.562;13.414;2024-03-25T01:02:45;96389.38;;;6.18;69.99
35649;BME280;21768;48.562;13.414;2024-03-25T01:05:10;96383.84;;;6.24;69.92
35649;BME280;21768;48.562;13.414;2024-03-25T01:07:36;96384.72;;;6.24;69.65
35649;BME280;21768;48.562;13.414;2024-03-25T01:10:02;96398.97;;;6.25;69.76
35649;BME280;21768;48.562;13.414;2024-03-25T01:12:27;96376.44;;;6.25;69.55
35649;BME280;21768;48.562;13.414;2024-03-25T01:14:53;96380.13;;;6.30;69.63
35649;BME280;21768;48.562;13.414;2024-03-25T01:17:19;96376.84;;;6.31;69.43
35649;BME280;21768;48.562;13.414;2024-03-25T01:19:44;96377.50;;;6.29;68.93
35649;BME280;21768;48.562;13.414;2024-03-25T01:22:10;96381.84;;;6.31;69.07
35649;BME280;21768;48.562;13.414;2024-03-25T01:24:35;96383.78;;;6.35;68.88
35649;BME280;21768;48.562;13.414;2024-03-25T01:27:01;96388.91;;;6.37;69.04
35649;BME280;21768;48.562;13.414;2024-03-25T01:29:27;96387.38;;;6.39;68.95
35649;BME280;21768;48.562;13.414;2024-03-25T01:31:52;96386.09;;;6.45;69.00
35649;BME280;21768;48.562;13.414;2024-03-25T01:34:18;96391.31;;;6.48;68.73
35649;BME280;21768;48.562;13.414;2024-03-25T01:36:44;96378.00;;;6.49;68.94
35649;BME280;21768;48.562;13.414;2024-03-25T01:39:09;96375.81;;;6.54;68.86
35649;BME280;21768;48.562;13.414;2024-03-25T01:41:35;96382.34;;;6.52;68.90
35649;BME280;21768;48.562;13.414;2024-03-25T01:44:00;96376.38;;;6.50;68.80
35649;BME280;21768;48.562;13.414;2024-03-25T01:46:27;96376.28;;;6.48;68.62
35649;BME280;21768;48.562;13.414;2024-03-25T01:48:54;96372.03;;;6.47;68.52
35649;BME280;21768;48.562;13.414;2024-03-25T01:51:21;96372.91;;;6.48;68.59
35649;BME280;21768;48.562;13.414;2024-03-25T01:53:49;96367.78;;;6.46;68.38
35649;BME280;21768;48.562;13.414;2024-03-25T01:56:16;96352.00;;;6.47;68.52
35649;BME280;21768;48.562;13.414;2024-03-25T01:58:43;96361.03;;;6.45;68.32
35649;BME280;21768;48.562;13.414;2024-03-25T02:01:09;96364.16;;;6.41;68.26
35649;BME280;21768;48.562;13.414;2024-03-25T02:03:39;96374.94;;;6.40;68.43
35649;BME280;21768;48.562;13.414;2024-03-25T02:06:08;96361.44;;;6.38;67.96
35649;BME280;21768;48.562;13.414;2024-03-25T02:08:35;96365.50;;;6.36;67.94
35649;BME280;21768;48.562;13.414;2024-03-25T02:11:01;96358.94;;;6.38;67.93
35649;BME280;21768;48.562;13.414;2024-03-25T02:13:27;96373.22;;;6.39;67.56
35649;BME280;21768;48.562;13.414;2024-03-25T02:15:53;96377.63;;;6.43;67.86
35649;BME280;21768;48.562;13.414;2024-03-25T02:18:20;96371.06;;;6.45;67.72
35649;BME280;21768;48.562;13.414;2024-03-25T02:20:46;96376.06;;;6.45;67.76
35649;BME280;21768;48.562;13.414;2024-03-25T02:23:12;96375.41;;;6.48;67.60
35649;BME280;21768;48.562;13.414;2024-03-25T02:25:40;96370.19;;;6.45;67.54
35649;BME280;21768;48.562;13.414;2024-03-25T02:28:06;96374.16;;;6.41;67.46
35649;BME280;21768;48.562;13.414;2024-03-25T02:30:31;96370.50;;;6.36;67.41
35649;BME280;21768;48.562;13.414;2024-03-25T02:32:57;96377.25;;;6.37;67.73
35649;BME280;21768;48.562;13.414;2024-03-25T02:35:24;96381.94;;;6.33;67.48
35649;BME280;21768;48.562;13.414;2024-03-25T02:37:51;96377.03;;;6.34;67.68
35649;BME280;21768;48.562;13.414;2024-03-25T02:40:17;96388.81;;;6.35;67.55
35649;BME280;21768;48.562;13.414;2024-03-25T02:42:44;96379.44;;;6.33;67.74
35649;BME280;21768;48.562;13.414;2024-03-25T02:45:10;96381.38;;;6.37;67.46
35649;BME280;21768;48.562;13.414;2024-03-25T02:47:36;96385.72;;;6.39;67.58
35649;BME280;21768;48.562;13.414;2024-03-25T02:50:01;96389.97;;;6.40;67.38
35649;BME280;21768;48.562;13.414;2024-03-25T02:52:27;96396.88;;;6.44;67.50
35649;BME280;21768;48.562;13.414;2024-03-25T02:54:52;96386.69;;;6.41;67.48
35649;BME280;21768;48.562;13.414;2024-03-25T02:57:20;96393.34;;;6.41;67.49
35649;BME280;21768;48.562;13.414;2024-03-25T02:59:45;96387.63;;;6.43;67.35
35649;BME280;21768;48.562;13.414;2024-03-25T03:02:11;96380.06;;;6.42;67.32
35649;BME280;21768;48.562;13.414;2024-03-25T03:04:36;96388.81;;;6.48;67.34
35649;BME280;21768;48.562;13.414;2024-03-25T03:07:03;96389.78;;;6.51;67.12
35649;BME280;21768;48.562;13.414;2024-03-25T03:09:29;96382.81;;;6.46;67.17
35649;BME280;21768;48.562;13.414;2024-03-25T03:11:56;96389.00;;;6.52;67.09
35649;BME280;21768;48.562;13.414;2024-03-25T03:14:22;96385.72;;;6.53;67.17
35649;BME280;21768;48.562;13.414;2024-03-25T03:16:47;96385.72;;;6.53;67.11
35649;BME280;21768;48.562;13.414;2024-03-25T03:19:13;96386.69;;;6.55;67.10
35649;BME280;21768;48.562;13.414;2024-03-25T03:21:38;96393.13;;;6.51;66.95
35649;BME280;21768;48.562;13.414;2024-03-25T03:24:04;96397.38;;;6.52;67.07
35649;BME280;21768;48.562;13.414;2024-03-25T03:26:31;96388.44;;;6.56;67.07
35649;BME280;21768;48.562;13.414;2024-03-25T03:28:57;96397.88;;;6.60;66.95
35649;BME280;21768;48.562;13.414;2024-03-25T03:31:24;96394.41;;;6.58;66.79
35649;BME280;21768;48.562;13.414;2024-03-25T03:33:50;96393.44;;;6.56;66.78
35649;BME280;21768;48.562;13.414;2024-03-25T03:36:17;96392.00;;;6.59;66.90
35649;BME280;21768;48.562;13.414;2024-03-25T03:38:43;96393.84;;;6.62;66.80
35649;BME280;21768;48.562;13.414;2024-03-25T03:41:08;96397.69;;;6.57;66.53
35649;BME280;21768;48.562;13.414;2024-03-25T03:43:34;96387.47;;;6.54;66.86
35649;BME280;21768;48.562;13.414;2024-03-25T03:46:00;96398.25;;;6.53;67.05
35649;BME280;21768;48.562;13.414;2024-03-25T03:48:27;96402.41;;;6.52;66.96
35649;BME280;21768;48.562;13.414;2024-03-25T03:50:53;96404.03;;;6.52;66.96
35649;BME280;21768;48.562;13.414;2024-03-25T03:53:19;96401.31;;;6.48;66.89
35649;BME280;21768;48.562;13.414;2024-03-25T03:55:55;96401.91;;;6.44;67.00
35649;BME280;21768;48.562;13.414;2024-03-25T03:58:22;96401.72;;;6.41;67.07
35649;BME280;21768;48.562;13.414;2024-03-25T04:00:48;96412.50;;;6.40;66.98
35649;BME280;21768;48.562;13.414;2024-03-25T04:03:13;96398.34;;;6.41;67.02
35649;BME280;21768;48.562;13.414;2024-03-25T04:05:39;96406.84;;;6.43;66.93
35649;BME280;21768;48.562;13.414;2024-03-25T04:08:05;96405.88;;;6.41;66.64
35649;BME280;21768;48.562;13.414;2024-03-25T04:10:31;96417.69;;;6.43;66.88
35649;BME280;21768;48.562;13.414;2024-03-25T04:12:56;96412.13;;;6.47;66.69
35649;BME280;21768;48.562;13.414;2024-03-25T04:15:22;96412.88;;;6.46;66.64
35649;BME280;21768;48.562;13.414;2024-03-25T04:17:48;96419.44;;;6.44;66.78
35649;BME280;21768;48.562;13.414;2024-03-25T04:20:15;96410.13;;;6.42;66.83
35649;BME280;21768;48.562;13.414;2024-03-25T04:22:46;96418.28;;;6.39;66.52
35649;BME280;21768;48.562;13.414;2024-03-25T04:25:13;96426.06;;;6.44;66.69
35649;BME280;21768;48.562;13.414;2024-03-25T04:27:42;96419.25;;;6.41;66.57
35649;BME280;21768;48.562;13.414;2024-03-25T04:30:10;96425.91;;;6.41;66.50
35649;BME280;21768;48.562;13.414;2024-03-25T04:32:37;96425.81;;;6.39;66.74
35649;BME280;21768;48.562;13.414;2024-03-25T04:35:02;96431.03;;;6.42;66.99
35649;BME280;21768;48.562;13.414;2024-03-25T04:37:29;96424.38;;;6.43;66.57
35649;BME280;21768;48.562;13.414;2024-03-25T04:39:55;96431.94;;;6.44;66.54
35649;BME280;21768;48.562;13.414;2024-03-25T04:42:21;96423.78;;;6.47;66.70
35649;BME280;21768;48.562;13.414;2024-03-25T04:44:47;96429.44;;;6.44;66.42
35649;BME280;21768;48.562;13.414;2024-03-25T04:47:13;96430.31;;;6.45;66.23
35649;BME280;21768;48.562;13.414;2024-03-25T04:49:41;96432.06;;;6.46;66.46
35649;BME280;21768;48.562;13.414;2024-03-25T04:52:06;96428.78;;;6.47;66.52
35649;BME280;21768;48.562;13.414;2024-03-25T04:54:32;96428.78;;;6.47;66.23
35649;BME280;21768;48.562;13.414;2024-03-25T04:56:58;96429.66;;;6.47;66.25
35649;BME280;21768;48.562;13.414;2024-03-25T04:59:23;96438.69;;;6.45;66.29
35649;BME280;21768;48.562;13.414;2024-03-25T05:01:49;96438.69;;;6.45;66.21
35649;BME280;21768;48.562;13.414;2024-03-25T05:04:14;96447.09;;;6.46;66.12
35649;BME280;21768;48.562;13.414;2024-03-25T05:06:39;96443.91;;;6.48;66.20
35649;BME280;21768;48.562;13.414;2024-03-25T05:09:05;96443.91;;;6.48;66.03
35649;BME280;21768;48.562;13.414;2024-03-25T05:11:32;96454.69;;;6.47;66.23
35649;BME280;21768;48.562;13.414;2024-03-25T05:13:58;96453.38;;;6.53;66.44
35649;BME280;21768;48.562;13.414;2024-03-25T05:16:24;96459.44;;;6.56;66.17
35649;BME280;21768;48.562;13.414;2024-03-25T05:18:49;96447.69;;;6.55;65.97
35649;BME280;21768;48.562;13.414;2024-03-25T05:21:15;96444.88;;;6.51;65.99
35649;BME280;21768;48.562;13.414;2024-03-25T05:23:40;96453.38;;;6.53;65.88
35649;BME280;21768;48.562;13.414;2024-03-25T05:26:06;96459.44;;;6.56;65.64
35649;BME280;21768;48.562;13.414;2024-03-25T05:28:31;96457.91;;;6.58;65.52
35649;BME280;21768;48.562;13.414;2024-03-25T05:31:05;96460.31;;;6.57;65.56
35649;BME280;21768;48.562;13.414;2024-03-25T05:33:31;96460.31;;;6.57;65.50
35649;BME280;21768;48.562;13.414;2024-03-25T05:35:58;96476.22;;;6.57;65.41
35649;BME280;21768;48.562;13.414;2024-03-25T05:38:23;96472.09;;;6.58;65.33
35649;BME280;21768;48.562;13.414;2024-03-25T05:40:49;96477.97;;;6.58;65.43
35649;BME280;21768;48.562;13.414;2024-03-25T05:43:14;96474.88;;;6.62;65.51
35649;BME280;21768;48.562;13.414;2024-03-25T05:45:40;96480.28;;;6.68;65.54
35649;BME280;21768;48.562;13.414;2024-03-25T05:48:05;96486.56;;;6.75;65.27
35649;BME280;21768;48.562;13.414;2024-03-25T05:50:31;96483.38;;;6.77;65.33
35649;BME280;21768;48.562;13.414;2024-03-25T05:52:57;96478.47;;;6.79;65.22
35649;BME280;21768;48.562;13.414;2024-03-25T05:55:22;96477.59;;;6.78;65.44
35649;BME280;21768;48.562;13.414;2024-03-25T05:57:48;96480.88;;;6.77;65.23
35649;BME280;21768;48.562;13.414;2024-03-25T06:00:14;96497.94;;;6.83;65.25
35649;BME280;21768;48.562;13.414;2024-03-25T06:02:40;96490.72;;;6.88;65.20
35649;BME280;21768;48.562;13.414;2024-03-25T06:05:05;96493.13;;;6.86;65.33
35649;BME280;21768;48.562;13.414;2024-03-25T06:07:31;96493.91;;;6.85;64.58
35649;BME280;21768;48.562;13.414;2024-03-25T06:09:56;96500.84;;;6.89;64.35
35649;BME280;21768;48.562;13.414;2024-03-25T06:12:22;96508.66;;;6.94;64.54
35649;BME280;21768;48.562;13.414;2024-03-25T06:14:47;96501.41;;;6.98;64.58
35649;BME280;21768;48.562;13.414;2024-03-25T06:17:13;96509.72;;;6.97;64.32
35649;BME280;21768;48.562;13.414;2024-03-25T06:19:38;96514.53;;;6.94;64.38
35649;BME280;21768;48.562;13.414;2024-03-25T06:22:04;96512.13;;;6.96;64.21
35649;BME280;21768;48.562;13.414;2024-03-25T06:24:29;96518.88;;;6.97;64.06
35649;BME280;21768;48.562;13.414;2024-03-25T06:26:55;96518.69;;;6.94;64.07
35649;BME280;21768;48.562;13.414;2024-03-25T06:29:20;96519.53;;;6.94;64.09
35649;BME280;21768;48.562;13.414;2024-03-25T06:31:47;96515.59;;;6.98;64.19
35649;BME280;21768;48.562;13.414;2024-03-25T06:34:31;96527.56;;;7.02;63.87
35649;BME280;21768;48.562;13.414;2024-03-25T06:36:57;96529.41;;;7.04;63.51
35649;BME280;21768;48.562;13.414;2024-03-25T06:39:23;96525.63;;;6.98;63.73
35649;BME280;21768;48.562;13.414;2024-03-25T06:41:48;96534.59;;;6.94;63.79
35649;BME280;21768;48.562;13.414;2024-03-25T06:44:14;96541.34;;;6.95;63.91
35649;BME280;21768;48.562;13.414;2024-03-25T06:46:39;96542.22;;;6.96;63.94
35649;BME280;21768;48.562;13.414;2024-03-25T06:49:04;96544.16;;;7.00;63.69
35649;BME280;21768;48.562;13.414;2024-03-25T06:51:30;96542.50;;;7.00;63.62
35649;BME280;21768;48.562;13.414;2024-03-25T06:53:55;96547.63;;;7.02;64.04
35649;BME280;21768;48.562;13.414;2024-03-25T06:56:20;96552.47;;;7.12;63.72
35649;BME280;21768;48.562;13.414;2024-03-25T06:58:46;96553.53;;;7.15;63.43
35649;BME280;21768;48.562;13.414;2024-03-25T07:01:11;96551.69;;;7.13;63.36
35649;BME280;21768;48.562;13.414;2024-03-25T07:03:39;96556.63;;;7.11;63.56
35649;BME280;21768;48.562;13.414;2024-03-25T07:06:06;96562.81;;;7.16;63.87
35649;BME280;21768;48.562;13.414;2024-03-25T07:08:31;96551.59;;;7.25;63.45
35649;BME280;21768;48.562;13.414;2024-03-25T07:10:58;96560.28;;;7.30;63.58
35649;BME280;21768;48.562;13.414;2024-03-25T07:13:24;96565.22;;;7.28;63.35
35649;BME280;21768;48.562;13.414;2024-03-25T07:15:50;96559.31;;;7.28;63.70
35649;BME280;21768;48.562;13.414;2024-03-25T07:18:15;96563.75;;;7.32;63.04
35649;BME280;21768;48.562;13.414;2024-03-25T07:20:43;96572.25;;;7.34;63.23
35649;BME280;21768;48.562;13.414;2024-03-25T07:23:10;96562.53;;;7.38;63.31
35649;BME280;21768;48.562;13.414;2024-03-25T07:25:35;96561.84;;;7.41;63.08
35649;BME280;21768;48.562;13.414;2024-03-25T07:28:02;96565.59;;;7.47;63.15
35649;BME280;21768;48.562;13.414;2024-03-25T07:30:28;96553.34;;;7.52;62.54
35649;BME280;21768;48.562;13.414;2024-03-25T07:32:58;96570.03;;;7.51;62.42
35649;BME280;21768;48.562;13.414;2024-03-25T07:35:24;96561.81;;;7.54;62.90
35649;BME280;21768;48.562;13.414;2024-03-25T07:37:49;96558.72;;;7.71;62.72
35649;BME280;21768;48.562;13.414;2024-03-25T07:40:18;96560.25;;;7.82;61.87
35649;BME280;21768;48.562;13.414;2024-03-25T07:42:44;96568.16;;;7.89;61.90
35649;BME280;21768;48.562;13.414;2024-03-25T07:45:10;96562.91;;;7.99;61.61
35649;BME280;21768;48.562;13.414;2024-03-25T07:47:35;96571.97;;;8.10;60.87
35649;BME280;21768;48.562;13.414;2024-03-25T07:50:01;96564.25;;;8.07;61.04
35649;BME280;21768;48.562;13.414;2024-03-25T07:52:27;96569.22;;;8.20;61.00
35649;BME280;21768;48.562;13.414;2024-03-25T07:54:53;96570.91;;;8.47;60.19
35649;BME280;21768;48.562;13.414;2024-03-25T07:57:19;96571.34;;;8.40;59.87
35649;BME280;21768;48.562;13.414;2024-03-25T07:59:45;96564.66;;;9.28;58.86
35649;BME280;21768;48.562;13.414;2024-03-25T08:02:10;96562.09;;;10.84;55.62
35649;BME280;21768;48.562;13.414;2024-03-25T08:04:36;96560.56;;;11.38;54.39
35649;BME280;21768;48.562;13.414;2024-03-25T08:07:02;96560.31;;;11.51;53.60
35649;BME280;21768;48.562;13.414;2024-03-25T08:09:28;96559.78;;;12.48;50.02
35649;BME280;21768;48.562;13.414;2024-03-25T08:11:53;96548.84;;;13.71;47.90
35649;BME280;21768;48.562;13.414;2024-03-25T08:14:19;96563.72;;;13.01;48.22
35649;BME280;21768;48.562;13.414;2024-03-25T08:16:45;96567.50;;;13.51;47.66
35649;BME280;21768;48.562;13.414;2024-03-25T08:19:11;96560.63;;;13.48;47.10
35649;BME280;21768;48.562;13.414;2024-03-25T08:21:36;96569.00;;;13.06;47.32
35649;BME280;21768;48.562;13.414;2024-03-25T08:24:02;96561.44;;;13.26;46.90
35649;BME280;21768;48.562;13.414;2024-03-25T08:26:27;96568.41;;;13.13;47.21
35649;BME280;21768;48.562;13.414;2024-03-25T08:28:53;96561.09;;;12.40;47.58
35649;BME280;21768;48.562;13.414;2024-03-25T08:31:19;96568.72;;;12.03;49.18
35649;BME280;21768;48.562;13.414;2024-03-25T08:33:44;96563.22;;;12.12;49.86
35649;BME280;21768;48.562;13.414;2024-03-25T08:36:10;96562.41;;;13.51;46.64
35649;BME280;21768;48.562;13.414;2024-03-25T08:38:37;96559.34;;;13.80;46.19
35649;BME280;21768;48.562;13.414;2024-03-25T08:41:03;96562.84;;;14.05;45.84
35649;BME280;21768;48.562;13.414;2024-03-25T08:43:29;96561.97;;;13.61;44.75
35649;BME280;21768;48.562;13.414;2024-03-25T08:45:55;96565.94;;;13.14;45.42
35649;BME280;21768;48.562;13.414;2024-03-25T08:48:21;96561.66;;;13.96;45.52
35649;BME280;21768;48.562;13.414;2024-03-25T08:50:47;96554.00;;;14.87;43.02
35649;BME280;21768;48.562;13.414;2024-03-25T08:53:12;96554.19;;;17.16;40.07
35649;BME280;21768;48.562;13.414;2024-03-25T08:55:38;96544.31;;;19.27;35.71
35649;BME280;21768;48.562;13.414;2024-03-25T08:58:03;96546.13;;;19.85;35.69
35649;BME280;21768;48.562;13.414;2024-03-25T09:00:29;96547.59;;;19.68;35.16
35649;BME280;21768;48.562;13.414;2024-03-25T09:02:54;96550.16;;;19.69;34.69
35649;BME280;21768;48.562;13.414;2024-03-25T09:05:21;96549.81;;;19.00;33.22
35649;BME280;21768;48.562;13.414;2024-03-25T09:07:50;96544.75;;;19.03;32.31
35649;BME280;21768;48.562;13.414;2024-03-25T09:10:18;96546.69;;;17.91;34.36
35649;BME280;21768;48.562;13.414;2024-03-25T09:13:02;96558.72;;;16.95;36.74
35649;BME280;21768;48.562;13.414;2024-03-25T09:15:28;96567.25;;;17.63;35.83
35649;BME280;21768;48.562;13.414;2024-03-25T09:17:54;96556.03;;;19.14;32.34
35649;BME280;21768;48.562;13.414;2024-03-25T09:20:20;96564.69;;;20.29;30.27
35649;BME280;21768;48.562;13.414;2024-03-25T09:22:49;96549.22;;;21.75;28.47
35649;BME280;21768;48.562;13.414;2024-03-25T09:25:18;96539.34;;;22.38;28.39
35649;BME280;21768;48.562;13.414;2024-03-25T09:27:47;96548.22;;;23.17;26.18
35649;BME280;21768;48.562;13.414;2024-03-25T09:30:13;96545.72;;;23.68;24.95
35649;BME280;21768;48.562;13.414;2024-03-25T09:32:39;96543.00;;;24.61;26.05
35649;BME280;21768;48.562;13.414;2024-03-25T09:35:05;96540.13;;;25.22;23.82
35649;BME280;21768;48.562;13.414;2024-03-25T09:37:31;96551.59;;;24.59;24.29
35649;BME280;21768;48.562;13.414;2024-03-25T09:39:57;96533.41;;;24.91;23.21
35649;BME280;21768;48.562;13.414;2024-03-25T09:42:28;96538.84;;;23.89;25.49
35649;BME280;21768;48.562;13.414;2024-03-25T09:44:56;96540.56;;;23.76;23.49
35649;BME280;21768;48.562;13.414;2024-03-25T09:47:22;96534.50;;;24.17;24.47
35649;BME280;21768;48.562;13.414;2024-03-25T09:49:48;96537.41;;;25.45;23.18
35649;BME280;21768;48.562;13.414;2024-03-25T09:52:17;96536.13;;;25.96;22.72
35649;BME280;21768;48.562;13.414;2024-03-25T09:54:44;96538.88;;;27.30;20.67
35649;BME280;21768;48.562;13.414;2024-03-25T09:57:09;96534.81;;;27.12;20.18
35649;BME280;21768;48.562;13.414;2024-03-25T09:59:35;96541.03;;;25.18;22.34
35649;BME280;21768;48.562;13.414;2024-03-25T10:02:01;96531.91;;;24.30;23.49
35649;BME280;21768;48.562;13.414;2024-03-25T10:04:28;96538.84;;;23.78;24.20
35649;BME280;21768;48.562;13.414;2024-03-25T10:06:53;96534.56;;;23.85;24.73
35649;BME280;21768;48.562;13.414;2024-03-25T10:09:22;96528.56;;;23.60;23.84
35649;BME280;21768;48.562;13.414;2024-03-25T10:11:51;96524.25;;;26.61;20.64
35649;BME280;21768;48.562;13.414;2024-03-25T10:14:16;96518.34;;;28.68;19.84
35649;BME280;21768;48.562;13.414;2024-03-25T10:16:43;96527.41;;;27.98;19.20
35649;BME280;21768;48.562;13.414;2024-03-25T10:19:09;96528.06;;;27.00;20.14
35649;BME280;21768;48.562;13.414;2024-03-25T10:21:35;96522.09;;;25.19;20.87
35649;BME280;21768;48.562;13.414;2024-03-25T10:24:01;96524.22;;;23.16;22.78
35649;BME280;21768;48.562;13.414;2024-03-25T10:26:31;96539.72;;;20.15;25.48
35649;BME280;21768;48.562;13.414;2024-03-25T10:29:04;96530.91;;;18.92;26.79
35649;BME280;21768;48.562;13.414;2024-03-25T10:31:31;96522.91;;;19.72;26.76
35649;BME280;21768;48.562;13.414;2024-03-25T10:33:58;96519.66;;;22.44;24.24
35649;BME280;21768;48.562;13.414;2024-03-25T10:36:24;96516.28;;;24.74;22.48
35649;BME280;21768;48.562;13.414;2024-03-25T10:38:58;96512.91;;;25.90;20.69
35649;BME280;21768;48.562;13.414;2024-03-25T10:41:27;96514.13;;;27.09;18.51
35649;BME280;21768;48.562;13.414;2024-03-25T10:43:54;96509.16;;;25.19;20.33
35649;BME280;21768;48.562;13.414;2024-03-25T10:46:22;96504.16;;;22.22;23.20
35649;BME280;21768;48.562;13.414;2024-03-25T10:48:53;96511.34;;;19.98;26.05
35649;BME280;21768;48.562;13.414;2024-03-25T10:51:21;96511.19;;;18.43;27.25
35649;BME280;21768;48.562;13.414;2024-03-25T10:53:51;96501.91;;;17.33;29.52
35649;BME280;21768;48.562;13.414;2024-03-25T10:56:20;96520.59;;;16.66;30.57
35649;BME280;21768;48.562;13.414;2024-03-25T10:58:48;96505.44;;;17.39;29.87
35649;BME280;21768;48.562;13.414;2024-03-25T11:01:15;96506.16;;;18.47;28.45
35649;BME280;21768;48.562;13.414;2024-03-25T11:03:42;96511.59;;;17.12;29.06
35649;BME280;21768;48.562;13.414;2024-03-25T11:06:07;96514.31;;;15.95;31.17
35649;BME280;21768;48.562;13.414;2024-03-25T11:08:33;96511.72;;;15.40;31.58
35649;BME280;21768;48.562;13.414;2024-03-25T11:10:59;96507.25;;;16.45;29.89
35649;BME280;21768;48.562;13.414;2024-03-25T11:13:26;96507.63;;;15.71;31.02
35649;BME280;21768;48.562;13.414;2024-03-25T11:15:52;96503.47;;;14.95;33.13
35649;BME280;21768;48.562;13.414;2024-03-25T11:18:21;96502.13;;;14.55;33.46
35649;BME280;21768;48.562;13.414;2024-03-25T11:21:10;96502.88;;;15.02;33.02
35649;BME280;21768;48.562;13.414;2024-03-25T11:23:44;96497.31;;;15.41;33.05
35649;BME280;21768;48.562;13.414;2024-03-25T11:26:24;96497.88;;;14.80;33.22
35649;BME280;21768;48.562;13.414;2024-03-25T11:28:50;96492.69;;;14.51;32.57
35649;BME280;21768;48.562;13.414;2024-03-25T11:31:16;96493.25;;;14.44;32.99
35649;BME280;21768;48.562;13.414;2024-03-25T11:33:44;96469.19;;;16.50;31.67
35649;BME280;21768;48.562;13.414;2024-03-25T11:36:10;96465.94;;;18.81;28.39
35649;BME280;21768;48.562;13.414;2024-03-25T11:38:35;96471.44;;;17.74;28.46
35649;BME280;21768;48.562;13.414;2024-03-25T11:41:01;96473.13;;;16.09;31.04
35649;BME280;21768;48.562;13.414;2024-03-25T11:43:26;96472.50;;;14.80;32.67
35649;BME280;21768;48.562;13.414;2024-03-25T11:45:52;96469.34;;;14.15;33.68
35649;BME280;21768;48.562;13.414;2024-03-25T11:48:19;96479.59;;;13.72;34.60
35649;BME280;21768;48.562;13.414;2024-03-25T11:50:46;96480.34;;;13.47;34.95
35649;BME280;21768;48.562;13.414;2024-03-25T11:53:15;96473.41;;;13.43;35.80
35649;BME280;21768;48.562;13.414;2024-03-25T11:55:45;96471.31;;;13.76;35.37
35649;BME280;21768;48.562;13.414;2024-03-25T11:58:11;96468.19;;;14.06;35.60
35649;BME280;21768;48.562;13.414;2024-03-25T12:00:43;96461.63;;;14.58;33.92
35649;BME280;21768;48.562;13.414;2024-03-25T12:03:09;96459.50;;;15.23;33.54
35649;BME280;21768;48.562;13.414;2024-03-25T12:05:36;96448.47;;;15.76;34.10
35649;BME280;21768;48.562;13.414;2024-03-25T12:08:02;96443.34;;;16.05;33.05
35649;BME280;21768;48.562;13.414;2024-03-25T12:10:27;96438.41;;;16.11;32.42
35649;BME280;21768;48.562;13.414;2024-03-25T12:13:11;96437.50;;;15.79;32.30
35649;BME280;21768;48.562;13.414;2024-03-25T12:15:37;96445.72;;;15.16;33.00
35649;BME280;21768;48.562;13.414;2024-03-25T12:18:03;96441.53;;;14.91;34.04
35649;BME280;21768;48.562;13.414;2024-03-25T12:20:28;96435.97;;;14.76;33.69
35649;BME280;21768;48.562;13.414;2024-03-25T12:22:54;96431.28;;;14.88;34.01
35649;BME280;21768;48.562;13.414;2024-03-25T12:25:19;96437.31;;;14.92;34.39
35649;BME280;21768;48.562;13.414;2024-03-25T12:27:46;96434.09;;;14.71;34.58
35649;BME280;21768;48.562;13.414;2024-03-25T12:30:13;96428.56;;;14.33;34.59
35649;BME280;21768;48.562;13.414;2024-03-25T12:32:44;96425.53;;;14.19;36.15
35649;BME280;21768;48.562;13.414;2024-03-25T12:37:39;96429.69;;;14.17;36.33
35649;BME280;21768;48.562;13.414;2024-03-25T12:40:07;96430.06;;;14.28;34.91
35649;BME280;21768;48.562;13.414;2024-03-25T12:42:34;96421.00;;;14.35;35.02
35649;BME280;21768;48.562;13.414;2024-03-25T12:45:00;96418.84;;;14.45;34.69
35649;BME280;21768;48.562;13.414;2024-03-25T12:47:26;96414.28;;;14.60;35.00
35649;BME280;21768;48.562;13.414;2024-03-25T12:49:52;96406.31;;;14.75;35.30
35649;BME280;21768;48.562;13.414;2024-03-25T12:52:18;96406.00;;;15.18;35.20
35649;BME280;21768;48.562;13.414;2024-03-25T12:54:43;96400.44;;;15.57;36.82